Time;durP1;ratioP1;P1;durP2;ratioP2;P2;SDS_P1;SDS_P2;PMS_P1;PMS_P2;Temp;Humidity;BMP_temperature;BMP_pressure;BME280_temperature;BME280_humidity;BME280_pressure;Samples;Min_cycle;Max_cycle;Signal;HPM_P1;HPM_P2
2021/07/25 00:02:04;;;;;;;;;;;18.40;99.90;;;;;;5042386;28;19932;-83
2021/07/25 00:04:31;;;;;;;;;;;18.40;99.90;;;;;;5029981;28;20464;-83
2021/07/25 00:06:58;;;;;;;;;;;18.40;99.90;;;;;;5047948;28;20043;-84
2021/07/25 00:09:23;;;;;;;;;;;18.30;99.90;;;;;;5047115;28;20457;-83
2021/07/25 00:11:49;;;;;;;;;;;18.40;99.90;;;;;;5014120;28;20400;-84
2021/07/25 00:14:15;;;;;;;;;;;18.30;99.90;;;;;;5033430;28;19925;-84
2021/07/25 00:16:41;;;;;;;;;;;18.30;99.90;;;;;;5008585;28;19925;-84
2021/07/25 00:19:09;;;;;;;;;;;18.30;99.90;;;;;;5020139;28;19929;-83
2021/07/25 00:21:35;;;;;;;;;;;18.20;99.90;;;;;;5026696;28;19925;-83
2021/07/25 00:24:02;;;;;;;;;;;18.20;99.90;;;;;;5045953;28;19978;-83
2021/07/25 00:26:34;;;;;;;;;;;18.20;99.90;;;;;;5030073;28;19924;-83
2021/07/25 00:29:00;;;;;;;;;;;18.10;99.90;;;;;;5047363;28;19982;-83
2021/07/25 00:31:29;;;;;;;;;;;18.10;99.90;;;;;;5034324;28;19928;-83
2021/07/25 00:33:55;;;;;;;;;;;18.00;99.90;;;;;;5040112;28;19920;-82
2021/07/25 00:36:21;;;;;;;;;;;18.00;99.90;;;;;;5064957;28;19924;-83
2021/07/25 00:38:46;;;;;;;;;;;18.00;99.90;;;;;;5045989;28;19924;-82
2021/07/25 00:41:13;;;;;;;;;;;17.90;99.90;;;;;;5047821;28;20038;-82
2021/07/25 00:43:39;;;;;;;;;;;17.90;99.90;;;;;;5030581;28;20011;-82
2021/07/25 00:46:05;;;;;;;;;;;17.90;99.90;;;;;;5030494;28;19920;-83
2021/07/25 00:48:31;;;;;;;;;;;17.90;99.90;;;;;;5044319;28;19932;-82
2021/07/25 00:50:57;;;;;;;;;;;17.90;99.90;;;;;;5041904;28;20081;-82
2021/07/25 00:53:23;;;;;;;;;;;17.90;99.90;;;;;;5055736;28;19977;-83
2021/07/25 00:55:49;;;;;;;;;;;17.90;99.90;;;;;;5058862;28;20442;-83
2021/07/25 00:58:15;;;;;;;;;;;17.90;99.90;;;;;;5015989;28;20287;-83
2021/07/25 01:00:44;;;;;;;;;;;17.90;99.90;;;;;;5063876;28;19924;-83
2021/07/25 01:03:29;;;;;;;;;;;17.80;99.90;;;;;;5051753;28;20467;-83
2021/07/25 01:06:00;;;;;;;;;;;17.80;99.90;;;;;;5052281;28;19974;-83
2021/07/25 01:08:36;;;;;;;;;;;17.80;99.90;;;;;;5047424;28;19931;-83
2021/07/25 01:11:02;;;;;;;;;;;17.80;99.90;;;;;;5064656;28;19957;-83
2021/07/25 01:13:30;;;;;;;;;;;17.80;99.90;;;;;;5022492;28;19939;-82
2021/07/25 01:15:57;;;;;;;;;;;17.80;99.90;;;;;;5036287;28;20299;-82
2021/07/25 01:18:22;;;;;;;;;;;17.90;99.90;;;;;;5032971;28;19943;-82
2021/07/25 01:20:48;;;;;;;;;;;17.90;99.90;;;;;;5016237;28;20347;-82
2021/07/25 01:23:14;;;;;;;;;;;17.90;99.90;;;;;;5038885;28;20372;-82
2021/07/25 01:25:40;;;;;;;;;;;17.90;99.90;;;;;;5035519;28;20579;-82
2021/07/25 01:28:12;;;;;;;;;;;17.90;99.90;;;;;;5010718;28;19927;-81
2021/07/25 01:30:39;;;;;;;;;;;17.90;99.90;;;;;;5042993;28;20418;-82
2021/07/25 01:33:09;;;;;;;;;;;17.80;99.90;;;;;;5039709;28;19968;-82
2021/07/25 01:35:35;;;;;;;;;;;17.80;99.90;;;;;;5073707;28;19970;-82
2021/07/25 01:38:01;;;;;;;;;;;17.80;99.90;;;;;;5023995;28;19920;-83
2021/07/25 01:40:27;;;;;;;;;;;17.80;99.90;;;;;;5027458;28;19921;-83
2021/07/25 01:42:53;;;;;;;;;;;17.80;99.90;;;;;;5043850;28;19979;-82
2021/07/25 01:45:19;;;;;;;;;;;17.90;99.90;;;;;;5075893;28;20350;-82
2021/07/25 01:47:45;;;;;;;;;;;17.90;99.90;;;;;;5073967;28;19974;-82
2021/07/25 01:50:12;;;;;;;;;;;18.00;99.90;;;;;;5026563;28;19924;-82
2021/07/25 01:52:38;;;;;;;;;;;18.00;99.90;;;;;;5077744;28;19963;-82
2021/07/25 01:55:04;;;;;;;;;;;18.00;99.90;;;;;;5074534;28;19959;-83
2021/07/25 01:57:29;;;;;;;;;;;18.00;99.90;;;;;;5059580;28;19924;-83
2021/07/25 01:59:56;;;;;;;;;;;18.00;99.90;;;;;;5076958;28;19920;-82
2021/07/25 02:02:22;;;;;;;;;;;18.00;99.90;;;;;;5038921;28;19935;-83
2021/07/25 02:04:48;;;;;;;;;;;18.10;99.90;;;;;;5061758;28;20379;-82
2021/07/25 02:07:14;;;;;;;;;;;18.10;99.90;;;;;;5052715;28;19925;-82
2021/07/25 02:09:42;;;;;;;;;;;18.10;99.90;;;;;;5060757;28;20015;-83
2021/07/25 02:12:09;;;;;;;;;;;18.10;99.90;;;;;;5039421;28;20027;-82
2021/07/25 02:14:36;;;;;;;;;;;18.20;99.90;;;;;;5059951;28;19921;-82
2021/07/25 02:17:02;;;;;;;;;;;18.20;99.90;;;;;;5036502;28;19921;-83
2021/07/25 02:19:28;;;;;;;;;;;18.20;99.90;;;;;;5076074;28;19924;-82
2021/07/25 02:21:54;;;;;;;;;;;18.20;99.90;;;;;;5060929;28;19925;-82
2021/07/25 02:24:20;;;;;;;;;;;18.20;99.90;;;;;;5075736;28;19925;-81
2021/07/25 02:26:46;;;;;;;;;;;18.20;99.90;;;;;;5081669;28;20012;-83
2021/07/25 02:29:11;;;;;;;;;;;18.20;99.90;;;;;;5022483;28;20402;-81
2021/07/25 02:31:37;;;;;;;;;;;18.10;99.90;;;;;;5045596;28;19928;-81
2021/07/25 02:34:03;;;;;;;;;;;18.10;99.90;;;;;;5041309;28;20406;-81
2021/07/25 02:36:29;;;;;;;;;;;18.10;99.90;;;;;;5058582;28;20032;-81
2021/07/25 02:38:54;;;;;;;;;;;18.10;99.90;;;;;;5050393;28;19924;-80
2021/07/25 02:41:20;;;;;;;;;;;18.00;99.90;;;;;;5059744;28;20494;-80
2021/07/25 02:43:46;;;;;;;;;;;18.00;99.90;;;;;;5044485;28;19943;-81
2021/07/25 02:46:11;;;;;;;;;;;18.10;99.90;;;;;;5062291;28;20041;-81
2021/07/25 02:48:37;;;;;;;;;;;18.10;99.90;;;;;;5056335;28;20070;-80
2021/07/25 02:51:02;;;;;;;;;;;18.10;99.90;;;;;;5043472;28;19928;-80
2021/07/25 02:53:28;;;;;;;;;;;18.10;99.90;;;;;;5046238;28;19931;-80
2021/07/25 02:55:54;;;;;;;;;;;18.10;99.90;;;;;;5060289;28;20427;-81
2021/07/25 02:58:20;;;;;;;;;;;18.10;99.90;;;;;;5042542;28;20508;-81
2021/07/25 03:00:45;;;;;;;;;;;18.10;99.90;;;;;;5059980;28;19932;-81
2021/07/25 03:03:13;;;;;;;;;;;18.10;99.90;;;;;;5061656;28;21337;-81
2021/07/25 03:05:39;;;;;;;;;;;18.10;99.90;;;;;;5044915;28;19932;-80
2021/07/25 03:08:05;;;;;;;;;;;18.10;99.90;;;;;;5008339;28;19974;-81
2021/07/25 03:10:31;;;;;;;;;;;18.10;99.90;;;;;;5072642;28;19932;-81
2021/07/25 03:12:57;;;;;;;;;;;18.10;99.90;;;;;;5057986;28;19924;-81
2021/07/25 03:15:22;;;;;;;;;;;18.10;99.90;;;;;;5044742;28;20016;-81
2021/07/25 03:17:48;;;;;;;;;;;18.10;99.90;;;;;;5025944;28;19925;-80
2021/07/25 03:20:14;;;;;;;;;;;18.10;99.90;;;;;;5025010;28;19925;-81
2021/07/25 03:22:43;;;;;;;;;;;18.10;99.90;;;;;;5041023;28;20314;-80
2021/07/25 03:25:09;;;;;;;;;;;18.10;99.90;;;;;;5056225;28;19924;-81
2021/07/25 03:27:34;;;;;;;;;;;18.10;99.90;;;;;;5039570;28;19927;-80
2021/07/25 03:30:00;;;;;;;;;;;18.10;99.90;;;;;;5053384;28;19924;-81
2021/07/25 03:32:26;;;;;;;;;;;18.10;99.90;;;;;;5059280;28;19958;-80
2021/07/25 03:34:52;;;;;;;;;;;18.10;99.90;;;;;;5047791;28;20291;-81
2021/07/25 03:37:18;;;;;;;;;;;18.10;99.90;;;;;;5059180;28;19925;-81
2021/07/25 03:39:46;;;;;;;;;;;18.20;99.90;;;;;;5042801;28;19935;-82
2021/07/25 03:42:13;;;;;;;;;;;18.10;99.90;;;;;;5024896;28;19921;-80
2021/07/25 03:44:39;;;;;;;;;;;18.10;99.90;;;;;;5039284;28;20281;-80
2021/07/25 03:47:07;;;;;;;;;;;18.20;99.90;;;;;;5037604;28;19932;-81
2021/07/25 03:49:32;;;;;;;;;;;18.20;99.90;;;;;;5038823;28;19925;-80
2021/07/25 03:51:58;;;;;;;;;;;18.10;99.90;;;;;;5053076;28;19928;-80
2021/07/25 03:54:24;;;;;;;;;;;18.10;99.90;;;;;;5058597;28;19924;-81
2021/07/25 03:56:50;;;;;;;;;;;18.10;99.90;;;;;;5026939;28;20402;-82
2021/07/25 03:59:16;;;;;;;;;;;18.10;99.90;;;;;;5025725;28;19921;-81
2021/07/25 04:01:42;;;;;;;;;;;18.20;99.90;;;;;;5024238;28;19935;-80
2021/07/25 04:04:07;;;;;;;;;;;18.10;99.90;;;;;;5040609;28;20489;-81
2021/07/25 04:06:33;;;;;;;;;;;18.10;99.90;;;;;;5025446;28;19925;-80
2021/07/25 04:08:59;;;;;;;;;;;18.10;99.90;;;;;;5036479;28;20667;-82
2021/07/25 04:11:25;;;;;;;;;;;18.10;99.90;;;;;;5061667;28;19947;-81
2021/07/25 04:13:51;;;;;;;;;;;18.00;99.90;;;;;;5042820;28;20384;-81
2021/07/25 04:16:17;;;;;;;;;;;18.00;99.90;;;;;;5036706;28;19924;-82
2021/07/25 04:18:43;;;;;;;;;;;18.00;99.90;;;;;;5062678;28;19978;-81
2021/07/25 04:21:08;;;;;;;;;;;18.00;99.90;;;;;;5038067;28;20708;-81
2021/07/25 04:23:37;;;;;;;;;;;18.00;99.90;;;;;;5040673;28;19925;-82
2021/07/25 04:26:03;;;;;;;;;;;18.00;99.90;;;;;;5037991;28;20028;-82
2021/07/25 04:28:29;;;;;;;;;;;18.00;99.90;;;;;;5037525;28;20047;-81
2021/07/25 04:30:54;;;;;;;;;;;17.90;99.90;;;;;;5023434;28;19940;-82
2021/07/25 04:33:21;;;;;;;;;;;17.90;99.90;;;;;;5040206;28;20016;-82
2021/07/25 04:35:47;;;;;;;;;;;18.00;99.90;;;;;;5021846;28;19931;-81
2021/07/25 04:38:13;;;;;;;;;;;17.90;99.90;;;;;;5037020;28;19924;-81
2021/07/25 04:40:40;;;;;;;;;;;17.90;99.90;;;;;;5024138;28;20380;-81
2021/07/25 04:43:08;;;;;;;;;;;17.90;99.90;;;;;;5041468;28;19925;-81
2021/07/25 04:45:43;;;;;;;;;;;17.90;99.90;;;;;;5037824;28;20314;-81
2021/07/25 04:48:08;;;;;;;;;;;17.90;99.90;;;;;;5059284;28;19924;-81
2021/07/25 04:50:41;;;;;;;;;;;17.90;99.90;;;;;;5072384;28;20296;-81
2021/07/25 04:53:13;;;;;;;;;;;17.90;99.90;;;;;;5039494;28;19965;-82
2021/07/25 04:55:38;;;;;;;;;;;17.90;99.90;;;;;;5022354;28;19924;-81
2021/07/25 04:58:06;;;;;;;;;;;17.90;99.90;;;;;;5022595;28;19921;-82
2021/07/25 05:00:32;;;;;;;;;;;17.90;99.90;;;;;;5037423;28;19929;-83
2021/07/25 05:03:03;;;;;;;;;;;17.80;99.90;;;;;;5038717;28;19935;-81
2021/07/25 05:05:29;;;;;;;;;;;17.80;99.90;;;;;;5059576;28;19925;-82
2021/07/25 05:07:58;;;;;;;;;;;17.80;99.90;;;;;;5052429;28;20015;-82
2021/07/25 05:10:27;;;;;;;;;;;17.80;99.90;;;;;;5038132;28;20022;-83
2021/07/25 05:13:04;;;;;;;;;;;17.80;99.90;;;;;;5065015;28;19975;-82
2021/07/25 05:15:31;;;;;;;;;;;17.80;99.90;;;;;;5059674;28;19925;-82
2021/07/25 05:18:00;;;;;;;;;;;17.80;99.90;;;;;;5038475;28;19987;-82
2021/07/25 05:20:46;;;;;;;;;;;17.80;99.90;;;;;;5055416;28;19920;-82
2021/07/25 05:23:24;;;;;;;;;;;17.80;99.90;;;;;;5037293;28;19929;-82
2021/07/25 05:25:51;;;;;;;;;;;17.80;99.90;;;;;;5041213;28;19928;-82
2021/07/25 05:28:18;;;;;;;;;;;17.80;99.90;;;;;;5057139;28;19924;-82
2021/07/25 05:30:43;;;;;;;;;;;17.80;99.90;;;;;;5039928;28;19956;-82
2021/07/25 05:33:10;;;;;;;;;;;17.90;99.90;;;;;;5058367;28;20661;-82
2021/07/25 05:35:36;;;;;;;;;;;17.80;99.90;;;;;;5023738;28;19925;-82
2021/07/25 05:38:06;;;;;;;;;;;17.80;99.90;;;;;;5023834;28;19936;-81
2021/07/25 05:40:32;;;;;;;;;;;17.80;99.90;;;;;;5042895;28;19959;-82
2021/07/25 05:42:57;;;;;;;;;;;17.80;99.90;;;;;;5061005;28;19932;-82
2021/07/25 05:45:23;;;;;;;;;;;17.80;99.90;;;;;;5040900;28;20020;-82
2021/07/25 05:47:49;;;;;;;;;;;17.80;99.90;;;;;;5043950;28;20481;-82
2021/07/25 05:50:15;;;;;;;;;;;17.80;99.90;;;;;;5042669;28;19964;-82
2021/07/25 05:52:48;;;;;;;;;;;17.80;99.90;;;;;;5045119;28;19979;-82
2021/07/25 05:55:21;;;;;;;;;;;17.70;99.90;;;;;;5040291;28;20343;-83
2021/07/25 05:57:47;;;;;;;;;;;17.80;99.90;;;;;;5053137;28;19924;-81
2021/07/25 06:00:13;;;;;;;;;;;17.80;99.90;;;;;;5042500;28;19921;-81
2021/07/25 06:02:49;;;;;;;;;;;17.80;99.90;;;;;;5064439;28;20787;-83
2021/07/25 06:05:14;;;;;;;;;;;17.80;99.90;;;;;;5061111;28;19925;-83
2021/07/25 06:07:40;;;;;;;;;;;17.80;99.90;;;;;;5022882;28;19925;-82
2021/07/25 06:10:06;;;;;;;;;;;17.80;99.90;;;;;;5038687;28;20007;-83
2021/07/25 06:12:32;;;;;;;;;;;17.80;99.90;;;;;;5024263;28;19937;-82
2021/07/25 06:14:58;;;;;;;;;;;17.70;99.90;;;;;;5059451;28;19928;-82
2021/07/25 06:17:24;;;;;;;;;;;17.50;99.90;;;;;;5042201;28;19928;-82
2021/07/25 06:19:49;;;;;;;;;;;17.40;99.90;;;;;;5042724;28;19928;-84
2021/07/25 06:22:15;;;;;;;;;;;17.30;99.90;;;;;;5025631;28;19925;-83
2021/07/25 06:24:41;;;;;;;;;;;17.20;99.90;;;;;;5027109;28;19921;-82
2021/07/25 06:27:07;;;;;;;;;;;17.20;99.90;;;;;;5048199;28;20383;-83
2021/07/25 06:29:33;;;;;;;;;;;17.20;99.90;;;;;;5022567;28;19925;-83
2021/07/25 06:31:58;;;;;;;;;;;17.20;99.90;;;;;;5056054;28;19988;-83
2021/07/25 06:34:24;;;;;;;;;;;17.30;99.90;;;;;;5027477;28;19927;-83
2021/07/25 06:36:50;;;;;;;;;;;17.30;99.90;;;;;;5027415;28;20047;-83
2021/07/25 06:39:17;;;;;;;;;;;17.30;99.90;;;;;;5054389;28;19925;-83
2021/07/25 06:41:43;;;;;;;;;;;17.30;99.90;;;;;;5043211;28;19925;-83
2021/07/25 06:44:16;;;;;;;;;;;17.40;99.90;;;;;;5041353;28;20015;-83
2021/07/25 06:46:41;;;;;;;;;;;17.40;99.90;;;;;;5039136;28;20015;-83
2021/07/25 06:49:07;;;;;;;;;;;17.30;99.90;;;;;;5062948;28;20736;-83
2021/07/25 06:51:33;;;;;;;;;;;17.40;99.90;;;;;;5025864;28;19941;-82
2021/07/25 06:53:59;;;;;;;;;;;17.40;99.90;;;;;;5042090;28;20395;-82
2021/07/25 06:56:24;;;;;;;;;;;17.40;99.90;;;;;;5006699;28;19920;-82
2021/07/25 06:58:50;;;;;;;;;;;17.40;99.90;;;;;;5059882;28;19931;-82
2021/07/25 07:01:16;;;;;;;;;;;17.40;99.90;;;;;;5056447;28;20288;-83
2021/07/25 07:03:42;;;;;;;;;;;17.40;99.90;;;;;;5043508;28;19925;-83
2021/07/25 07:06:08;;;;;;;;;;;17.50;99.90;;;;;;5061747;28;20580;-82
2021/07/25 07:08:34;;;;;;;;;;;17.50;99.90;;;;;;5023365;28;19921;-83
2021/07/25 07:10:59;;;;;;;;;;;17.60;99.90;;;;;;5074850;28;19932;-83
2021/07/25 07:13:25;;;;;;;;;;;17.60;99.90;;;;;;5040078;28;19921;-83
2021/07/25 07:15:51;;;;;;;;;;;17.60;99.90;;;;;;5074030;28;20445;-83
2021/07/25 07:18:19;;;;;;;;;;;17.70;99.90;;;;;;5022220;28;19931;-82
2021/07/25 07:20:45;;;;;;;;;;;17.70;99.90;;;;;;5058721;28;19948;-82
2021/07/25 07:23:11;;;;;;;;;;;17.80;99.90;;;;;;5024495;28;20010;-82
2021/07/25 07:25:39;;;;;;;;;;;17.80;99.90;;;;;;5069261;28;19921;-82
2021/07/25 07:28:06;;;;;;;;;;;17.80;99.90;;;;;;5043324;28;19924;-83
2021/07/25 07:30:32;;;;;;;;;;;17.90;99.90;;;;;;5046204;28;19920;-83
2021/07/25 07:33:04;;;;;;;;;;;17.90;99.90;;;;;;5042852;28;20439;-83
2021/07/25 07:35:30;;;;;;;;;;;17.90;99.90;;;;;;5044410;28;19944;-83
2021/07/25 07:37:55;;;;;;;;;;;17.90;99.90;;;;;;5026628;28;19951;-82
2021/07/25 07:40:21;;;;;;;;;;;17.90;99.90;;;;;;5028474;28;19990;-83
2021/07/25 07:42:47;;;;;;;;;;;17.90;99.90;;;;;;5014558;28;19925;-83
2021/07/25 07:45:15;;;;;;;;;;;18.00;99.90;;;;;;5065992;28;20022;-83
2021/07/25 07:47:40;;;;;;;;;;;17.90;99.90;;;;;;5012003;28;19925;-83
2021/07/25 07:50:06;;;;;;;;;;;18.00;99.90;;;;;;5028216;28;19928;-82
2021/07/25 07:52:32;;;;;;;;;;;17.90;99.90;;;;;;5044486;28;19925;-83
2021/07/25 07:54:57;;;;;;;;;;;17.90;99.90;;;;;;5028908;28;19960;-83
2021/07/25 07:57:23;;;;;;;;;;;18.00;99.90;;;;;;5026766;28;19924;-82
2021/07/25 07:59:49;;;;;;;;;;;18.00;99.90;;;;;;5031456;28;20019;-82
2021/07/25 08:02:15;;;;;;;;;;;18.00;99.90;;;;;;5042833;28;20371;-83
2021/07/25 08:04:41;;;;;;;;;;;18.00;99.90;;;;;;5029873;28;19929;-83
2021/07/25 08:07:07;;;;;;;;;;;18.00;99.90;;;;;;5026886;28;20557;-82
2021/07/25 08:09:33;;;;;;;;;;;18.00;99.90;;;;;;5010692;28;20063;-84
2021/07/25 08:11:59;;;;;;;;;;;18.00;99.90;;;;;;5010543;28;19929;-84
2021/07/25 08:14:25;;;;;;;;;;;18.00;99.90;;;;;;5059005;28;19936;-87
2021/07/25 08:16:51;;;;;;;;;;;18.00;99.90;;;;;;5031858;28;19975;-91
2021/07/25 08:19:17;;;;;;;;;;;17.90;99.90;;;;;;5012481;28;19959;-83
2021/07/25 08:21:43;;;;;;;;;;;17.90;99.90;;;;;;5024149;28;19992;-83
2021/07/25 08:24:09;;;;;;;;;;;17.90;99.90;;;;;;5038113;28;19932;-84
2021/07/25 08:26:35;;;;;;;;;;;17.90;99.90;;;;;;5053855;28;20014;-84
2021/07/25 08:29:01;;;;;;;;;;;17.90;99.90;;;;;;5037925;28;19978;-84
2021/07/25 08:31:27;;;;;;;;;;;17.90;99.90;;;;;;5037168;28;20025;-84
2021/07/25 08:33:53;;;;;;;;;;;18.00;99.90;;;;;;5022121;28;20399;-84
2021/07/25 08:36:18;;;;;;;;;;;18.00;99.90;;;;;;5036614;28;19925;-83
2021/07/25 08:38:44;;;;;;;;;;;18.00;99.90;;;;;;5037621;28;20026;-84
2021/07/25 08:41:11;;;;;;;;;;;18.10;99.90;;;;;;5029209;28;19924;-84
2021/07/25 08:43:38;;;;;;;;;;;18.20;99.90;;;;;;5036872;28;19986;-83
2021/07/25 08:46:10;;;;;;;;;;;18.20;99.90;;;;;;5058263;28;19921;-84
2021/07/25 08:48:38;;;;;;;;;;;18.20;99.90;;;;;;5038182;28;19960;-84
2021/07/25 08:51:05;;;;;;;;;;;18.30;99.90;;;;;;5038858;28;20303;-84
2021/07/25 08:53:35;;;;;;;;;;;18.30;99.90;;;;;;5040303;28;19932;-83
2021/07/25 08:56:02;;;;;;;;;;;18.30;99.90;;;;;;5039645;28;19925;-84
2021/07/25 08:58:28;;;;;;;;;;;18.40;99.90;;;;;;5070616;28;19920;-83
2021/07/25 09:00:55;;;;;;;;;;;18.40;99.90;;;;;;5044449;28;19928;-83
2021/07/25 09:03:21;;;;;;;;;;;18.50;99.90;;;;;;5074018;28;20372;-83
2021/07/25 09:05:46;;;;;;;;;;;18.50;99.90;;;;;;5059099;28;19920;-84
2021/07/25 09:08:12;;;;;;;;;;;18.60;99.90;;;;;;5039807;28;21174;-83
2021/07/25 09:10:38;;;;;;;;;;;18.60;99.90;;;;;;5040984;28;20449;-83
2021/07/25 09:13:04;;;;;;;;;;;18.70;99.90;;;;;;5062755;28;20011;-83
2021/07/25 09:15:33;;;;;;;;;;;18.70;99.90;;;;;;5040165;28;20039;-85
2021/07/25 09:18:01;;;;;;;;;;;18.90;99.90;;;;;;5064838;28;19931;-84
2021/07/25 09:20:27;;;;;;;;;;;18.80;99.90;;;;;;5042150;28;20435;-84
2021/07/25 09:22:54;;;;;;;;;;;18.90;99.90;;;;;;5069392;28;20387;-82
2021/07/25 09:25:20;;;;;;;;;;;18.80;99.90;;;;;;5072252;28;19932;-84
2021/07/25 09:27:58;;;;;;;;;;;18.90;99.90;;;;;;5045401;28;19931;-84
2021/07/25 09:30:24;;;;;;;;;;;18.90;99.90;;;;;;5044017;28;19931;-84
2021/07/25 09:32:50;;;;;;;;;;;18.90;99.90;;;;;;5052549;28;19928;-84
2021/07/25 09:35:26;;;;;;;;;;;18.90;99.90;;;;;;5049720;28;19925;-83
2021/07/25 09:37:55;;;;;;;;;;;18.90;99.90;;;;;;5036259;28;19924;-84
2021/07/25 09:40:26;;;;;;;;;;;18.90;99.90;;;;;;5050869;28;20498;-84
2021/07/25 09:43:11;;;;;;;;;;;18.90;99.90;;;;;;5053527;28;20272;-84
2021/07/25 09:45:55;;;;;;;;;;;18.80;99.90;;;;;;5044216;28;19932;-83
2021/07/25 09:48:22;;;;;;;;;;;18.70;99.90;;;;;;5053366;28;19928;-83
2021/07/25 09:50:48;;;;;;;;;;;18.80;99.90;;;;;;5054352;28;19924;-83
2021/07/25 09:53:14;;;;;;;;;;;18.70;99.90;;;;;;5048593;28;19931;-84
2021/07/25 09:55:40;;;;;;;;;;;18.70;99.90;;;;;;5051647;28;19956;-83
2021/07/25 09:58:07;;;;;;;;;;;18.70;99.90;;;;;;5036468;28;19956;-84
2021/07/25 10:00:39;;;;;;;;;;;18.70;99.90;;;;;;5050278;28;19994;-83
2021/07/25 10:03:17;;;;;;;;;;;18.80;99.90;;;;;;5035382;28;20011;-84
2021/07/25 10:05:43;;;;;;;;;;;18.90;99.90;;;;;;5047973;28;19978;-87
2021/07/25 10:08:15;;;;;;;;;;;18.90;99.90;;;;;;5043254;28;19963;-84
2021/07/25 10:10:41;;;;;;;;;;;19.00;99.90;;;;;;5050374;28;20406;-83
2021/07/25 10:13:07;;;;;;;;;;;19.00;99.90;;;;;;5026889;28;19964;-84
2021/07/25 10:15:33;;;;;;;;;;;19.10;99.90;;;;;;5029663;28;20001;-83
2021/07/25 10:18:00;;;;;;;;;;;19.10;99.90;;;;;;5032196;28;19931;-86
2021/07/25 10:20:27;;;;;;;;;;;19.20;99.90;;;;;;5022135;28;19975;-83
2021/07/25 10:22:54;;;;;;;;;;;19.20;99.90;;;;;;5050056;28;20083;-85
2021/07/25 10:25:22;;;;;;;;;;;19.30;99.90;;;;;;5030358;28;19921;-84
2021/07/25 10:27:48;;;;;;;;;;;19.40;99.90;;;;;;5044392;28;20388;-85
2021/07/25 10:30:14;;;;;;;;;;;19.40;99.90;;;;;;5038139;28;20364;-84
2021/07/25 10:32:42;;;;;;;;;;;19.50;99.90;;;;;;5048980;28;19929;-84
2021/07/25 10:35:09;;;;;;;;;;;19.60;99.90;;;;;;5020301;28;19931;-85
2021/07/25 10:37:39;;;;;;;;;;;19.70;99.90;;;;;;5045708;28;20027;-85
2021/07/25 10:40:05;;;;;;;;;;;19.80;99.90;;;;;;5031216;28;19927;-85
2021/07/25 10:42:34;;;;;;;;;;;19.90;99.90;;;;;;5039842;28;20028;-84
2021/07/25 10:45:00;;;;;;;;;;;20.00;99.90;;;;;;5033623;28;19975;-83
2021/07/25 10:47:31;;;;;;;;;;;20.10;99.90;;;;;;5053718;28;19921;-84
2021/07/25 10:50:15;;;;;;;;;;;20.20;99.90;;;;;;5047957;28;20391;-86
2021/07/25 10:52:44;;;;;;;;;;;20.20;99.90;;;;;;5038802;28;20006;-85
2021/07/25 10:55:09;;;;;;;;;;;20.30;99.90;;;;;;5028184;28;19924;-84
2021/07/25 10:57:59;;;;;;;;;;;20.40;99.90;;;;;;5031794;28;19921;-85
2021/07/25 11:00:45;;;;;;;;;;;20.50;99.90;;;;;;5023462;28;19924;-85
2021/07/25 11:03:29;;;;;;;;;;;20.60;99.90;;;;;;5021416;28;19925;-84
2021/07/25 11:06:09;;;;;;;;;;;20.70;99.90;;;;;;5016023;28;20031;-84
2021/07/25 11:08:35;;;;;;;;;;;20.60;99.90;;;;;;5040089;28;19943;-84
2021/07/25 11:11:21;;;;;;;;;;;20.70;99.90;;;;;;5025892;28;19940;-84
2021/07/25 11:13:47;;;;;;;;;;;20.80;99.90;;;;;;5039318;28;19932;-85
2021/07/25 11:16:34;;;;;;;;;;;20.90;99.90;;;;;;5027923;28;19921;-87
2021/07/25 11:19:03;;;;;;;;;;;21.00;99.90;;;;;;5048762;28;19929;-84
2021/07/25 11:21:34;;;;;;;;;;;21.10;99.90;;;;;;5051956;28;20438;-87
2021/07/25 11:23:59;;;;;;;;;;;21.10;99.90;;;;;;5052994;28;19925;-87
2021/07/25 11:26:29;;;;;;;;;;;21.20;99.90;;;;;;5053434;28;19932;-88
2021/07/25 11:28:55;;;;;;;;;;;21.30;99.90;;;;;;5048606;28;19927;-88
2021/07/25 11:31:31;;;;;;;;;;;21.30;99.90;;;;;;5047108;28;19925;-86
2021/07/25 11:34:00;;;;;;;;;;;21.30;99.90;;;;;;5044135;28;19964;-87
2021/07/25 11:36:26;;;;;;;;;;;21.40;99.90;;;;;;5036357;28;19940;-84
2021/07/25 11:38:59;;;;;;;;;;;21.50;99.90;;;;;;5025422;28;20418;-85
2021/07/25 11:41:29;;;;;;;;;;;21.60;99.90;;;;;;5033548;28;20324;-85
2021/07/25 11:43:55;;;;;;;;;;;21.50;99.90;;;;;;5040328;28;19924;-84
2021/07/25 11:46:25;;;;;;;;;;;21.40;99.90;;;;;;5022963;28;19931;-84
2021/07/25 11:49:17;;;;;;;;;;;21.30;99.90;;;;;;5041351;28;19967;-83
2021/07/25 11:51:47;;;;;;;;;;;21.30;99.90;;;;;;5036435;28;19963;-84
2021/07/25 11:54:14;;;;;;;;;;;21.30;99.90;;;;;;5024370;28;19929;-83
2021/07/25 11:56:56;;;;;;;;;;;21.30;99.90;;;;;;5027988;28;19979;-85
2021/07/25 11:59:22;;;;;;;;;;;21.40;99.90;;;;;;5038291;28;19925;-85
2021/07/25 12:01:47;;;;;;;;;;;21.40;99.90;;;;;;5048959;28;20558;-84
2021/07/25 12:04:22;;;;;;;;;;;21.50;99.90;;;;;;5033064;28;19935;-86
2021/07/25 12:06:58;;;;;;;;;;;21.60;99.90;;;;;;5049827;28;19924;-85
2021/07/25 12:09:23;;;;;;;;;;;21.70;99.90;;;;;;5031737;28;19935;-84
2021/07/25 12:11:58;;;;;;;;;;;21.70;99.90;;;;;;5032836;28;19925;-86
2021/07/25 12:14:28;;;;;;;;;;;21.70;99.90;;;;;;5032032;28;19952;-86
2021/07/25 12:16:53;;;;;;;;;;;21.80;99.90;;;;;;5041655;28;20017;-86
2021/07/25 12:19:20;;;;;;;;;;;21.90;99.90;;;;;;5009403;28;19965;-87
2021/07/25 12:21:47;;;;;;;;;;;22.10;99.90;;;;;;5005597;28;20369;-89
2021/07/25 12:24:25;;;;;;;;;;;22.30;99.90;;;;;;5034109;28;19924;-83
2021/07/25 12:26:51;;;;;;;;;;;22.50;99.90;;;;;;5034504;28;19924;-83
2021/07/25 12:29:35;;;;;;;;;;;22.70;99.90;;;;;;5032476;28;19927;-86
2021/07/25 12:32:20;;;;;;;;;;;22.80;99.90;;;;;;5025486;28;19932;-84
2021/07/25 12:34:46;;;;;;;;;;;22.90;99.90;;;;;;5032903;28;20388;-80
2021/07/25 12:37:25;;;;;;;;;;;22.90;99.90;;;;;;5026428;28;19928;-81
2021/07/25 12:40:09;;;;;;;;;;;22.90;99.90;;;;;;5039117;28;19928;-81
2021/07/25 12:42:35;;;;;;;;;;;22.90;99.90;;;;;;5063269;28;19944;-80
2021/07/25 12:45:19;;;;;;;;;;;23.00;99.90;;;;;;5060144;28;19924;-81
2021/07/25 12:47:45;;;;;;;;;;;23.10;99.90;;;;;;5054989;28;19920;-79
2021/07/25 12:50:11;;;;;;;;;;;23.20;99.90;;;;;;5044172;28;20039;-82
2021/07/25 12:52:36;;;;;;;;;;;23.20;99.90;;;;;;5031375;28;19933;-80
2021/07/25 12:55:02;;;;;;;;;;;23.30;99.90;;;;;;5023588;28;19925;-80
2021/07/25 12:57:28;;;;;;;;;;;23.30;99.90;;;;;;5049489;28;20375;-79
2021/07/25 12:59:53;;;;;;;;;;;23.40;99.90;;;;;;5048042;28;19925;-76
2021/07/25 13:05:03;;;;;;;;;;;24.60;99.90;;;;;;5040338;28;19925;-82
2021/07/25 13:07:29;;;;;;;;;;;24.70;99.90;;;;;;5021057;28;19936;-84
2021/07/25 13:09:55;;;;;;;;;;;24.50;99.90;;;;;;5021264;28;19921;-84
2021/07/25 13:12:20;;;;;;;;;;;24.30;99.90;;;;;;5028299;28;19929;-84
2021/07/25 13:14:46;;;;;;;;;;;24.10;99.90;;;;;;5032358;28;20348;-84
2021/07/25 13:17:12;;;;;;;;;;;23.90;99.90;;;;;;4998699;28;19929;-85
2021/07/25 13:19:38;;;;;;;;;;;23.80;99.90;;;;;;5030720;28;19933;-85
2021/07/25 13:22:04;;;;;;;;;;;23.70;99.90;;;;;;5008459;28;19931;-84
2021/07/25 13:24:30;;;;;;;;;;;23.60;99.90;;;;;;5012393;28;19922;-85
2021/07/25 13:26:55;;;;;;;;;;;23.60;99.90;;;;;;5020700;28;20398;-85
2021/07/25 13:29:21;;;;;;;;;;;23.70;99.90;;;;;;5039504;28;19920;-83
2021/07/25 13:31:46;;;;;;;;;;;23.70;99.90;;;;;;5001259;28;20265;-85
2021/07/25 13:34:12;;;;;;;;;;;23.70;99.90;;;;;;5017519;28;19935;-83
2021/07/25 13:36:38;;;;;;;;;;;23.70;99.90;;;;;;5028126;28;19966;-85
2021/07/25 13:39:03;;;;;;;;;;;23.70;99.90;;;;;;5021747;28;19954;-84
2021/07/25 13:41:29;;;;;;;;;;;23.60;99.90;;;;;;5039734;28;19927;-84
2021/07/25 13:44:00;;;;;;;;;;;23.50;99.90;;;;;;5029465;28;21340;-84
2021/07/25 13:46:48;;;;;;;;;;;23.50;99.90;;;;;;5026380;28;19921;-85
2021/07/25 13:49:13;;;;;;;;;;;23.50;99.90;;;;;;5012371;28;19924;-85
2021/07/25 13:51:40;;;;;;;;;;;23.40;99.90;;;;;;5047436;28;19920;-84
2021/07/25 13:54:05;;;;;;;;;;;23.50;99.90;;;;;;5033543;28;19925;-85
2021/07/25 13:56:31;;;;;;;;;;;23.60;99.90;;;;;;5020411;28;19943;-84
2021/07/25 13:58:57;;;;;;;;;;;23.70;99.90;;;;;;5046315;28;19939;-85
2021/07/25 14:01:35;;;;;;;;;;;23.70;99.90;;;;;;5048841;28;19929;-86
2021/07/25 14:04:01;;;;;;;;;;;23.90;99.90;;;;;;5050249;28;19983;-86
2021/07/25 14:06:27;;;;;;;;;;;23.90;99.90;;;;;;5029649;28;19955;-85
2021/07/25 14:08:52;;;;;;;;;;;23.90;99.90;;;;;;5040296;28;20019;-85
2021/07/25 14:11:18;;;;;;;;;;;23.80;99.90;;;;;;5037921;28;20388;-85
2021/07/25 14:13:44;;;;;;;;;;;23.80;99.90;;;;;;5027509;28;20289;-86
2021/07/25 14:16:28;;;;;;;;;;;23.70;99.90;;;;;;5023341;28;19994;-86
2021/07/25 14:18:53;;;;;;;;;;;23.60;99.90;;;;;;5062882;28;19921;-85
2021/07/25 14:21:20;;;;;;;;;;;23.70;99.90;;;;;;5049152;28;19935;-86
2021/07/25 14:23:46;;;;;;;;;;;23.80;99.90;;;;;;5032661;28;19921;-85